x

Ilm3 - 27 Miles Se Of Wrightsville Beach, Nc (41037) Weather Station

4:08 - Sun 29th May 2016 All times are EDT. -4 hours from GMT.

  • Wind
    16mph, 20mph gusts
  • Sea Temp 76°f
  • Ar Temp 76°f
  • Sea Pressure 1015.7mb
  • Ilm3 - 27 Miles Se Of Wrightsville Beach, Nc
  • Ilm3 - 27 Miles Se Of Wrightsville Beach, Nc

More Historic Weather Station data

Upgrade to MSW Pro to gain access to the past 30 days of data for over 8000 Wavebouys and Weather Stations around the globe.

Join Pro

Comparision Forecast

View Surf forecast
   
Dom 05/29 4:08 16 20 mph 1015.7mb 76f 76f
3:08 16 22 mph 1016mb 76f 77f
2:08 13 18 mph 1016.2mb 75f 77f
1:08 13 18 mph 1017.2mb 75f 76f
12:08 11 16 mph 1018.4mb 75f 74f
Sáb 05/28 11:08 16 20 mph 1018.3mb 75f 74f
10:08 13 18 mph 1018.5mb 74f 76f
9:08 13 18 mph 1018.1mb 74f 76f
8:08 11 16 mph 1019mb 74f 75f
7:08 16 22 mph 1018.2mb 74f 76f
6:08 18 25 mph 1018.1mb 74f 76f
5:08 13 20 mph 1018.7mb 75f 76f
4:08 11 18 mph 1019.8mb 74f 77f
3:08 16 20 mph 1019.9mb 74f 77f
2:08 13 20 mph 1019.9mb 74f 77f
1:08 13 18 mph 1020mb 74f 77f
12:08 13 20 mph 1020.1mb 74f 77f
11:08 13 18 mph 1021.2mb 74f 77f
10:08 11 16 mph 1020.4mb 74f 77f
9:08 11 16 mph 1020.1mb 74f 77f
8:08 9 13 mph 1019.8mb 74f 76f
7:08 11 16 mph 1019.4mb 74f 76f
6:08 9 13 mph 1019.3mb 74f 75f
5:08 9 13 mph 1018.7mb 74f 76f
4:08 9 13 mph 1018.5mb 74f 76f
3:08 9 13 mph 1018.6mb 74f 76f
2:08 9 13 mph 1019mb 74f 76f
1:08 11 16 mph 1019.5mb 74f 76f
12:08 9 13 mph 1019.8mb 74f 76f
Sex 05/27 11:08 9 13 mph 1019.9mb 75f 76f
10:08 9 13 mph 1019.6mb 74f 76f
9:08 9 11 mph 1019.3mb 74f 76f
8:08 9 11 mph 1019.8mb 75f 76f
7:08 7 11 mph 1019.9mb 75f 76f
6:08 9 11 mph 1019.7mb 75f 77f
5:08 11 16 mph 1019.5mb 75f 77f
4:08 11 13 mph 1019.5mb 75f 77f
3:08 11 13 mph 1020.8mb 75f 76f
2:08 9 13 mph 1021.1mb 75f 76f
1:08 9 11 mph 1021.1mb 75f 76f
12:08 9 13 mph 1021.3mb 74f 76f
11:08 7 11 mph 1021.3mb 74f 76f
10:08 7 9 mph 1021.9mb 74f 76f
9:08 7 9 mph 1021.8mb 74f 76f
8:08 7 11 mph 1020.8mb 74f 76f
7:08 4 7 mph 1020.8mb 74f 76f
6:08 2 4 mph 1020.3mb 74f 75f
5:08 4 7 mph 1020.1mb 74f 75f
4:08 7 9 mph 1020.1mb 74f 76f
3:08 9 13 mph 1020mb 74f 76f
2:08 11 16 mph 1019.6mb 74f 76f
1:08 11 16 mph 1020.1mb 74f 76f
12:08 11 13 mph 1021.2mb 75f 76f
Qui 05/26 11:08 9 13 mph 1021.4mb 75f 76f
10:08 11 16 mph 1021.4mb 74f 76f
9:08 11 13 mph 1020.5mb 74f 77f
8:08 11 13 mph 1019.9mb 75f 76f
7:08 11 16 mph 1020.4mb 75f 77f
6:08 11 13 mph 1020.8mb 75f 77f
5:08 9 11 mph 1021.4mb 75f 77f
4:08 7 11 mph 1021.3mb 75f 77f
3:08 9 11 mph 1021.5mb 75f 77f
2:08 7 9 mph 1022.6mb 75f 77f
12:08 7 9 mph 1022.9mb 74f 76f
11:08 4 7 mph 1022.7mb 74f 76f
10:08 7
mph
1023mb 74f 76f
9:08 4
mph
1024mb 73f 76f
8:08 4 7 mph 1023.5mb 73f 76f
7:08 4 9 mph 1023.2mb 73f 75f
6:08 7 11 mph 1022.3mb 73f 75f
5:08 9 11 mph 1021.6mb 73f 75f
4:08 9 13 mph 1021.8mb 73f 75f
3:08 9 13 mph 1021.7mb 74f 75f
2:08 9 13 mph 1022mb 74f 75f
1:08 11 13 mph 1022.5mb 74f 75f
12:08 9 13 mph 1022.6mb 74f 76f
Qua 05/25 11:08 9 11 mph 1023.1mb 74f 75f
10:08 9 11 mph 1023mb 74f 75f
9:08 9 11 mph 1022.2mb 74f 75f
8:08 9 13 mph 1021.6mb 74f 75f
7:08 9 13 mph 1021.6mb 74f 76f
6:08 11 13 mph 1022.9mb 74f 76f
5:08 9 13 mph 1022.9mb 74f 76f
4:08 9 11 mph 1022.7mb 74f 76f
3:08 9 11 mph 1022.7mb 74f 75f
2:08 9 11 mph 1023.1mb 74f 75f
1:08 7 9 mph 1024.5mb 74f 75f
12:08 7 9 mph 1024.5mb 74f 74f
11:08 7 9 mph 1024mb 73f 74f
10:08 7 9 mph 1023.9mb 73f 74f